Time;durP1;ratioP1;P1;durP2;ratioP2;P2;SDS_P1;SDS_P2;PMS_P1;PMS_P2;Temp;Humidity;BMP_temperature;BMP_pressure;BME280_temperature;BME280_humidity;BME280_pressure;Samples;Min_cycle;Max_cycle;Signal;HPM_P1;HPM_P2
2023/06/29 00:02:02;;;;;;;12.30;3.90;;;;;;;-128.00;-1.00;-1.00;18450;324;7506941;-36
2023/06/29 00:04:29;;;;;;;17.80;4.30;;;;;;;-128.00;-1.00;-1.00;18479;289;7504747;-34
2023/06/29 00:06:55;;;;;;;4.90;4.30;;;;;;;-128.00;-1.00;-1.00;18444;296;7504784;-35
2023/06/29 00:09:21;;;;;;;10.60;3.40;;;;;;;-128.00;-1.00;-1.00;18469;297;7504251;-36
2023/06/29 00:11:47;;;;;;;11.90;4.40;;;;;;;-128.00;-1.00;-1.00;18472;296;7506518;-33
2023/06/29 00:14:13;;;;;;;9.80;3.00;;;;;;;-128.00;-1.00;-1.00;18478;289;7504337;-33
2023/06/29 00:16:39;;;;;;;9.50;5.30;;;;;;;-128.00;-1.00;-1.00;18444;285;7506086;-36
2023/06/29 00:19:07;;;;;;;17.70;5.20;;;;;;;-128.00;-1.00;-1.00;18468;289;7506369;-35
2023/06/29 00:21:33;;;;;;;7.40;3.50;;;;;;;-128.00;-1.00;-1.00;18462;296;7504463;-35
2023/06/29 00:23:59;;;;;;;4.60;3.90;;;;;;;-128.00;-1.00;-1.00;18482;285;7504945;-33
2023/06/29 00:26:28;;;;;;;9.20;6.00;;;;;;;-128.00;-1.00;-1.00;18879;338;7505079;-36
2023/06/29 00:28:55;;;;;;;3.20;2.90;;;;;;;-128.00;-1.00;-1.00;18477;285;7504974;-34
2023/06/29 00:31:24;;;;;;;4.10;3.70;;;;;;;-128.00;-1.00;-1.00;18464;296;7505867;-36
2023/06/29 00:33:50;;;;;;;4.60;4.20;;;;;;;-128.00;-1.00;-1.00;18511;289;7506186;-34
2023/06/29 00:36:16;;;;;;;4.80;4.30;;;;;;;-128.00;-1.00;-1.00;18454;296;7506454;-33
2023/06/29 01:19:03;;;;;;;24.40;6.80;;;;;;;-100.04;19.20;19863.62;19602;294;8044937;-36
2023/06/29 01:21:30;;;;;;;8.40;5.20;;;;;;;-128.00;-1.00;-1.00;18202;295;7504336;-33
2023/06/29 01:23:57;;;;;;;12.30;6.20;;;;;;;-128.00;-1.00;-1.00;18910;295;7505744;-36
2023/06/29 01:26:23;;;;;;;4.40;4.00;;;;;;;-128.00;-1.00;-1.00;18468;343;7505106;-33
2023/06/29 01:28:50;;;;;;;20.40;6.20;;;;;;;-128.00;-1.00;-1.00;18435;335;7506131;-36
2023/06/29 01:31:16;;;;;;;13.60;6.20;;;;;;;-128.00;-1.00;-1.00;18440;297;7506141;-33
2023/06/29 01:33:41;;;;;;;6.40;5.60;;;;;;;-128.00;-1.00;-1.00;18456;295;7505210;-33
2023/06/29 01:36:25;;;;;;;7.80;5.40;;;;;;;-128.00;-1.00;-1.00;18498;295;7506610;-35
2023/06/29 01:38:53;;;;;;;4.40;3.80;;;;;;;-128.00;-1.00;-1.00;18459;346;7505208;-36
2023/06/29 01:41:19;;;;;;;4.80;4.20;;;;;;;-128.00;-1.00;-1.00;18461;295;7504968;-36
2023/06/29 01:43:45;;;;;;;13.90;5.80;;;;;;;-128.00;-1.00;-1.00;18892;295;7504979;-36
2023/06/29 01:46:11;;;;;;;7.00;5.20;;;;;;;-128.00;-1.00;-1.00;18903;295;7504649;-34
2023/06/29 01:48:37;;;;;;;19.00;5.90;;;;;;;-128.00;-1.00;-1.00;18873;295;7507092;-36
2023/06/29 01:51:04;;;;;;;12.60;5.20;;;;;;;-128.00;-1.00;-1.00;18901;295;7504354;-35
2023/06/29 01:53:29;;;;;;;24.60;4.70;;;;;;;-128.00;-1.00;-1.00;18531;295;7506435;-36
2023/06/29 01:55:56;;;;;;;17.00;6.10;;;;;;;-128.00;-1.00;-1.00;18866;287;7505098;-34
2023/06/29 01:58:22;;;;;;;10.60;5.60;;;;;;;-128.00;-1.00;-1.00;18888;295;7505012;-36
2023/06/29 02:00:48;;;;;;;6.30;5.30;;;;;;;-128.00;-1.00;-1.00;18867;346;7504558;-33
2023/06/29 02:03:14;;;;;;;11.10;4.10;;;;;;;-128.00;-1.00;-1.00;18872;295;7505297;-35
2023/06/29 02:05:40;;;;;;;7.60;5.90;;;;;;;-128.00;-1.00;-1.00;18899;295;7504157;-33
2023/06/29 02:08:06;;;;;;;8.50;5.10;;;;;;;-128.00;-1.00;-1.00;18871;295;7504325;-35
2023/06/29 02:10:32;;;;;;;10.30;5.50;;;;;;;-128.00;-1.00;-1.00;18885;306;7504482;-34
2023/06/29 02:12:59;;;;;;;5.70;5.00;;;;;;;-128.00;-1.00;-1.00;18927;295;7504735;-34
2023/06/29 02:15:25;;;;;;;6.90;5.40;;;;;;;-128.00;-1.00;-1.00;18875;295;7505170;-35
2023/06/29 02:17:51;;;;;;;21.60;7.00;;;;;;;-128.00;-1.00;-1.00;18512;295;7506365;-35
2023/06/29 02:20:17;;;;;;;10.10;4.70;;;;;;;-128.00;-1.00;-1.00;18464;295;7504549;-35
2023/06/29 02:22:43;;;;;;;5.00;3.80;;;;;;;-128.00;-1.00;-1.00;18459;295;7505290;-36
2023/06/29 02:25:10;;;;;;;5.90;5.30;;;;;;;-128.00;-1.00;-1.00;18866;335;7505631;-36
2023/06/29 02:27:36;;;;;;;8.20;4.10;;;;;;;-128.00;-1.00;-1.00;18449;295;7504528;-33
2023/06/29 02:30:03;;;;;;;9.80;5.00;;;;;;;-128.00;-1.00;-1.00;18853;295;7504594;-37
2023/06/29 02:32:28;;;;;;;7.20;5.20;;;;;;;-128.00;-1.00;-1.00;18477;294;7504966;-33
2023/06/29 02:34:54;;;;;;;7.90;4.30;;;;;;;-128.00;-1.00;-1.00;18876;318;7504333;-37
2023/06/29 02:37:20;;;;;;;6.00;5.00;;;;;;;-128.00;-1.00;-1.00;18884;295;7504735;-34
2023/06/29 02:39:47;;;;;;;9.90;5.40;;;;;;;-128.00;-1.00;-1.00;18862;288;7505014;-37
2023/06/29 02:42:13;;;;;;;9.40;5.70;;;;;;;-128.00;-1.00;-1.00;18907;295;7504570;-37
2023/06/29 02:44:39;;;;;;;5.20;4.60;;;;;;;-128.00;-1.00;-1.00;18890;295;7504540;-33
2023/06/29 02:47:07;;;;;;;3.90;2.00;;;;;;;-128.00;-1.00;-1.00;18506;298;7505949;-33
2023/06/29 02:49:33;;;;;;;11.70;4.80;;;;;;;-128.00;-1.00;-1.00;18891;295;7504651;-33
2023/06/29 02:51:59;;;;;;;6.00;5.30;;;;;;;-128.00;-1.00;-1.00;18917;295;7504183;-36
2023/06/29 02:54:25;;;;;;;11.10;5.50;;;;;;;-128.00;-1.00;-1.00;18880;335;7504551;-34
2023/06/29 02:56:52;;;;;;;6.80;4.90;;;;;;;-128.00;-1.00;-1.00;18892;339;7504305;-35
2023/06/29 02:59:18;;;;;;;9.30;5.10;;;;;;;-128.00;-1.00;-1.00;18871;295;7504398;-33
2023/06/29 03:01:44;;;;;;;12.30;5.20;;;;;;;-128.00;-1.00;-1.00;18867;295;7504744;-36
2023/06/29 03:04:10;;;;;;;10.30;5.80;;;;;;;-128.00;-1.00;-1.00;18859;318;7504293;-33
2023/06/29 03:06:36;;;;;;;11.80;6.40;;;;;;;-128.00;-1.00;-1.00;18889;295;7504809;-33
2023/06/29 03:09:03;;;;;;;9.40;4.60;;;;;;;-128.00;-1.00;-1.00;18883;295;7504574;-36
2023/06/29 03:11:29;;;;;;;8.90;5.70;;;;;;;-128.00;-1.00;-1.00;18905;318;7505564;-33
2023/06/29 03:13:57;;;;;;;13.00;6.00;;;;;;;-128.00;-1.00;-1.00;18864;323;7504281;-35
2023/06/29 03:16:22;;;;;;;4.90;4.50;;;;;;;-128.00;-1.00;-1.00;18456;295;7505084;-33
2023/06/29 03:18:48;;;;;;;15.60;8.20;;;;;;;-128.00;-1.00;-1.00;18455;295;7504687;-32
2023/06/29 03:21:19;;;;;;;8.00;5.70;;;;;;;-128.00;-1.00;-1.00;18900;288;7504441;-35
2023/06/29 03:23:45;;;;;;;7.90;5.60;;;;;;;-128.00;-1.00;-1.00;18475;295;7504724;-35
2023/06/29 03:26:12;;;;;;;7.00;6.00;;;;;;;-128.00;-1.00;-1.00;18470;295;7505327;-35
2023/06/29 03:28:38;;;;;;;7.80;4.90;;;;;;;-128.00;-1.00;-1.00;18456;295;7504222;-36
2023/06/29 03:31:04;;;;;;;14.60;6.10;;;;;;;-128.00;-1.00;-1.00;18882;295;7504493;-35
2023/06/29 03:33:30;;;;;;;13.60;5.60;;;;;;;-128.00;-1.00;-1.00;18458;295;7504735;-35
2023/06/29 03:35:56;;;;;;;10.60;6.00;;;;;;;-128.00;-1.00;-1.00;18929;295;7505570;-36
2023/06/29 03:38:22;;;;;;;20.00;6.60;;;;;;;-128.00;-1.00;-1.00;18865;347;7504305;-36
2023/06/29 03:40:48;;;;;;;11.30;6.60;;;;;;;-128.00;-1.00;-1.00;18870;295;7504434;-33
2023/06/29 03:43:14;;;;;;;11.40;5.40;;;;;;;-128.00;-1.00;-1.00;18899;295;7504352;-38
2023/06/29 03:45:41;;;;;;;10.60;6.00;;;;;;;-128.00;-1.00;-1.00;18865;295;7505808;-35
2023/06/29 03:48:07;;;;;;;17.40;5.60;;;;;;;-128.00;-1.00;-1.00;18866;295;7504386;-35
2023/06/29 03:50:33;;;;;;;6.60;5.20;;;;;;;-128.00;-1.00;-1.00;18895;295;7504975;-35
2023/06/29 03:52:59;;;;;;;5.80;4.40;;;;;;;-128.00;-1.00;-1.00;18917;295;7504674;-37
2023/06/29 03:55:25;;;;;;;9.60;4.50;;;;;;;-128.00;-1.00;-1.00;18869;335;7506053;-34
2023/06/29 03:57:52;;;;;;;9.60;5.30;;;;;;;-128.00;-1.00;-1.00;18904;295;7504671;-35
2023/06/29 04:00:18;;;;;;;10.30;4.90;;;;;;;-128.00;-1.00;-1.00;18857;298;7504623;-35
2023/06/29 04:02:44;;;;;;;6.20;4.60;;;;;;;-128.00;-1.00;-1.00;18902;295;7505048;-37
2023/06/29 04:05:10;;;;;;;6.40;5.00;;;;;;;-128.00;-1.00;-1.00;18871;295;7504616;-33
2023/06/29 04:07:37;;;;;;;5.80;5.20;;;;;;;-128.00;-1.00;-1.00;18883;303;7504572;-36
2023/06/29 04:10:03;;;;;;;8.90;5.20;;;;;;;-128.00;-1.00;-1.00;18891;295;7504858;-37
2023/06/29 04:12:30;;;;;;;7.00;5.30;;;;;;;-128.00;-1.00;-1.00;18880;296;7504948;-34
2023/06/29 04:14:56;;;;;;;7.50;4.20;;;;;;;-128.00;-1.00;-1.00;18875;295;7504761;-34
2023/06/29 04:17:22;;;;;;;8.30;5.40;;;;;;;-128.00;-1.00;-1.00;18886;288;7504518;-34
2023/06/29 04:19:48;;;;;;;7.40;4.80;;;;;;;-128.00;-1.00;-1.00;18482;295;7505851;-35
2023/06/29 04:22:14;;;;;;;10.80;5.20;;;;;;;-128.00;-1.00;-1.00;18501;335;7504472;-32
2023/06/29 04:24:40;;;;;;;8.10;4.60;;;;;;;-128.00;-1.00;-1.00;18489;295;7506086;-37
2023/06/29 04:27:06;;;;;;;9.20;4.90;;;;;;;-128.00;-1.00;-1.00;18867;306;7505325;-34
2023/06/29 04:29:32;;;;;;;7.10;5.00;;;;;;;-128.00;-1.00;-1.00;18861;295;7504702;-34
2023/06/29 04:31:58;;;;;;;7.50;5.70;;;;;;;-128.00;-1.00;-1.00;18866;306;7505262;-35
2023/06/29 04:34:25;;;;;;;8.20;5.70;;;;;;;-128.00;-1.00;-1.00;18859;295;7504376;-36
2023/06/29 04:36:56;;;;;;;9.70;6.10;;;;;;;-128.00;-1.00;-1.00;18881;335;7506637;-33
2023/06/29 04:39:21;;;;;;;13.10;5.10;;;;;;;-128.00;-1.00;-1.00;18502;295;7504974;-33
2023/06/29 04:41:47;;;;;;;6.90;5.20;;;;;;;-128.00;-1.00;-1.00;18869;288;7506112;-36
2023/06/29 04:44:13;;;;;;;10.20;6.00;;;;;;;-128.00;-1.00;-1.00;18892;295;7505443;-34
2023/06/29 04:46:40;;;;;;;16.90;6.20;;;;;;;-128.00;-1.00;-1.00;18895;295;7504408;-37
2023/06/29 04:49:06;;;;;;;4.00;3.50;;;;;;;-128.00;-1.00;-1.00;18465;295;7505810;-33
2023/06/29 04:51:38;;;;;;;5.60;4.80;;;;;;;-128.00;-1.00;-1.00;18478;295;7505038;-34
2023/06/29 04:54:07;;;;;;;12.70;4.50;;;;;;;-128.00;-1.00;-1.00;18485;295;7504734;-36
2023/06/29 04:56:33;;;;;;;10.10;4.20;;;;;;;-128.00;-1.00;-1.00;18490;346;7505868;-34
2023/06/29 04:58:59;;;;;;;6.00;4.80;;;;;;;-128.00;-1.00;-1.00;18483;295;7504752;-36
2023/06/29 05:01:24;;;;;;;5.00;4.30;;;;;;;-128.00;-1.00;-1.00;18484;295;7504765;-36
2023/06/29 05:03:50;;;;;;;7.70;4.40;;;;;;;-128.00;-1.00;-1.00;18861;295;7506170;-33
2023/06/29 05:06:17;;;;;;;4.70;4.20;;;;;;;-128.00;-1.00;-1.00;18874;303;7504216;-35
2023/06/29 05:08:43;;;;;;;7.50;5.30;;;;;;;-128.00;-1.00;-1.00;18875;295;7504490;-36
2023/06/29 05:11:09;;;;;;;10.10;3.80;;;;;;;-128.00;-1.00;-1.00;18888;295;7504471;-34
2023/06/29 05:13:36;;;;;;;16.20;5.30;;;;;;;-128.00;-1.00;-1.00;18859;319;7504253;-33
2023/06/29 05:16:03;;;;;;;11.00;7.50;;;;;;;-128.00;-1.00;-1.00;18865;296;7504347;-33
2023/06/29 05:18:29;;;;;;;4.90;3.30;;;;;;;-128.00;-1.00;-1.00;18470;295;7504743;-34
2023/06/29 05:20:55;;;;;;;3.60;2.80;;;;;;;-128.00;-1.00;-1.00;18504;287;7505965;-34
2023/06/29 05:23:20;;;;;;;3.80;2.70;;;;;;;-128.00;-1.00;-1.00;18471;295;7506410;-37
2023/06/29 05:25:48;;;;;;;4.20;2.60;;;;;;;-128.00;-1.00;-1.00;18468;335;7505631;-37
2023/06/29 05:28:13;;;;;;;6.70;4.00;;;;;;;-128.00;-1.00;-1.00;18459;295;7504737;-34
2023/06/29 05:30:39;;;;;;;5.70;3.70;;;;;;;-128.00;-1.00;-1.00;18480;318;7506100;-34
2023/06/29 05:33:05;;;;;;;10.80;4.80;;;;;;;-128.00;-1.00;-1.00;18447;347;7505126;-35
2023/06/29 05:35:31;;;;;;;7.30;3.50;;;;;;;-128.00;-1.00;-1.00;18463;295;7505836;-37
2023/06/29 05:37:58;;;;;;;5.30;4.00;;;;;;;-128.00;-1.00;-1.00;18468;295;7506228;-37
2023/06/29 05:40:23;;;;;;;13.10;4.90;;;;;;;-128.00;-1.00;-1.00;18488;346;7504358;-37
2023/06/29 05:42:49;;;;;;;4.80;3.30;;;;;;;-128.00;-1.00;-1.00;18463;295;7504755;-34
2023/06/29 05:45:15;;;;;;;9.50;4.00;;;;;;;-128.00;-1.00;-1.00;18860;295;7506308;-37
2023/06/29 05:47:41;;;;;;;6.60;4.40;;;;;;;-128.00;-1.00;-1.00;18871;295;7504507;-37
2023/06/29 05:50:08;;;;;;;5.40;2.80;;;;;;;-128.00;-1.00;-1.00;18886;288;7505310;-34
2023/06/29 05:52:34;;;;;;;5.00;4.60;;;;;;;-128.00;-1.00;-1.00;18480;295;7505049;-37
2023/06/29 05:55:01;;;;;;;30.40;5.30;;;;;;;-128.00;-1.00;-1.00;18469;295;7504760;-32
2023/06/29 05:57:27;;;;;;;5.10;4.00;;;;;;;-128.00;-1.00;-1.00;18490;295;7504278;-38
2023/06/29 05:59:53;;;;;;;9.50;3.70;;;;;;;-128.00;-1.00;-1.00;18461;295;7505596;-33
2023/06/29 06:02:19;;;;;;;5.30;3.50;;;;;;;-128.00;-1.00;-1.00;18864;335;7504160;-33
2023/06/29 06:04:45;;;;;;;11.50;4.10;;;;;;;-128.00;-1.00;-1.00;18868;287;7504559;-37
2023/06/29 06:07:14;;;;;;;3.80;3.40;;;;;;;-128.00;-1.00;-1.00;18860;295;7504527;-34
2023/06/29 06:09:40;;;;;;;3.30;3.00;;;;;;;-128.00;-1.00;-1.00;18489;295;7504202;-33
2023/06/29 06:12:06;;;;;;;4.40;3.20;;;;;;;-128.00;-1.00;-1.00;18499;339;7505182;-37
2023/06/29 06:14:31;;;;;;;2.90;1.80;;;;;;;-128.00;-1.00;-1.00;18488;335;7504255;-33
2023/06/29 06:16:57;;;;;;;5.00;4.10;;;;;;;-128.00;-1.00;-1.00;18498;295;7505304;-36
2023/06/29 06:19:23;;;;;;;5.40;3.40;;;;;;;-128.00;-1.00;-1.00;18885;347;7505075;-37
2023/06/29 06:21:49;;;;;;;8.50;3.20;;;;;;;-128.00;-1.00;-1.00;18886;288;7504821;-33
2023/06/29 06:24:15;;;;;;;5.50;3.40;;;;;;;-128.00;-1.00;-1.00;18870;295;7504762;-34
2023/06/29 06:26:43;;;;;;;5.60;2.70;;;;;;;-128.00;-1.00;-1.00;18464;347;7504988;-37
2023/06/29 06:29:08;;;;;;;4.10;3.00;;;;;;;-128.00;-1.00;-1.00;18502;288;7506040;-33
2023/06/29 06:31:34;;;;;;;2.30;2.10;;;;;;;-128.00;-1.00;-1.00;18451;298;7504365;-37
2023/06/29 06:33:59;;;;;;;4.70;3.00;;;;;;;-128.00;-1.00;-1.00;18460;295;7506105;-37
2023/06/29 06:36:25;;;;;;;3.50;3.00;;;;;;;-128.00;-1.00;-1.00;18496;330;7504460;-33
2023/06/29 06:38:51;;;;;;;3.90;3.20;;;;;;;-128.00;-1.00;-1.00;18465;295;7505636;-33
2023/06/29 06:41:17;;;;;;;4.20;3.30;;;;;;;-128.00;-1.00;-1.00;18878;283;7505481;-37
2023/06/29 06:43:43;;;;;;;8.80;3.60;;;;;;;-128.00;-1.00;-1.00;18893;295;7504183;-37
2023/06/29 06:46:09;;;;;;;2.50;2.10;;;;;;;-128.00;-1.00;-1.00;18913;295;7505002;-36
2023/06/29 06:48:35;;;;;;;5.50;2.80;;;;;;;-128.00;-1.00;-1.00;18895;295;7504654;-32
2023/06/29 06:51:02;;;;;;;4.20;3.20;;;;;;;-128.00;-1.00;-1.00;18872;295;7504242;-33
2023/06/29 06:53:28;;;;;;;6.80;2.30;;;;;;;-128.00;-1.00;-1.00;18880;295;7506520;-38
2023/06/29 06:55:54;;;;;;;3.80;3.10;;;;;;;-128.00;-1.00;-1.00;18899;295;7504530;-33
2023/06/29 06:58:20;;;;;;;5.10;2.00;;;;;;;-128.00;-1.00;-1.00;18871;335;7504502;-32
2023/06/29 07:00:47;;;;;;;3.20;2.50;;;;;;;-128.00;-1.00;-1.00;18873;295;7505656;-37
2023/06/29 07:03:14;;;;;;;4.00;2.00;;;;;;;-128.00;-1.00;-1.00;18466;295;7504483;-33
2023/06/29 07:05:39;;;;;;;7.30;2.10;;;;;;;-128.00;-1.00;-1.00;18486;295;7504237;-38
2023/06/29 07:08:05;;;;;;;2.90;1.90;;;;;;;-128.00;-1.00;-1.00;18862;318;7504454;-33
2023/06/29 07:10:31;;;;;;;5.00;3.40;;;;;;;-128.00;-1.00;-1.00;18871;295;7505257;-33
2023/06/29 07:12:58;;;;;;;4.00;2.40;;;;;;;-128.00;-1.00;-1.00;18891;288;7504824;-33
2023/06/29 07:15:24;;;;;;;3.50;2.20;;;;;;;-128.00;-1.00;-1.00;18899;346;7504682;-38
2023/06/29 07:17:50;;;;;;;2.70;2.30;;;;;;;-128.00;-1.00;-1.00;18872;295;7505363;-35
2023/06/29 07:20:16;;;;;;;7.00;3.20;;;;;;;-128.00;-1.00;-1.00;18474;295;7505313;-34
2023/06/29 07:22:42;;;;;;;4.50;2.30;;;;;;;-128.00;-1.00;-1.00;18478;346;7504390;-33
2023/06/29 07:25:11;;;;;;;4.90;2.30;;;;;;;-128.00;-1.00;-1.00;18458;295;7504262;-32
2023/06/29 07:27:38;;;;;;;4.00;2.30;;;;;;;-128.00;-1.00;-1.00;18462;295;7505336;-38
2023/06/29 07:30:04;;;;;;;4.00;3.00;;;;;;;-128.00;-1.00;-1.00;18502;295;7505578;-33
2023/06/29 07:32:30;;;;;;;5.10;3.00;;;;;;;-128.00;-1.00;-1.00;18488;295;7504200;-38
2023/06/29 07:34:56;;;;;;;3.00;2.00;;;;;;;-128.00;-1.00;-1.00;18882;295;7504685;-32
2023/06/29 07:37:23;;;;;;;3.80;2.30;;;;;;;-128.00;-1.00;-1.00;18875;295;7505279;-34
2023/06/29 07:39:48;;;;;;;2.90;2.70;;;;;;;-128.00;-1.00;-1.00;18526;294;7504851;-35
2023/06/29 07:42:14;;;;;;;5.10;2.40;;;;;;;-128.00;-1.00;-1.00;18894;295;7506163;-37
2023/06/29 07:44:40;;;;;;;19.30;3.10;;;;;;;-128.00;-1.00;-1.00;18882;311;7504257;-36
2023/06/29 07:47:07;;;;;;;2.00;1.60;;;;;;;-128.00;-1.00;-1.00;18898;288;7504980;-36
2023/06/29 07:49:33;;;;;;;4.90;2.30;;;;;;;-128.00;-1.00;-1.00;18886;295;7505808;-32
2023/06/29 07:51:59;;;;;;;6.00;1.80;;;;;;;-128.00;-1.00;-1.00;18870;295;7504506;-36
2023/06/29 07:54:27;;;;;;;3.60;1.80;;;;;;;-128.00;-1.00;-1.00;18879;295;7504667;-36
2023/06/29 07:56:52;;;;;;;3.50;1.70;;;;;;;-128.00;-1.00;-1.00;18519;295;7504902;-32
2023/06/29 07:59:18;;;;;;;4.40;3.20;;;;;;;-128.00;-1.00;-1.00;18468;346;7504300;-32
2023/06/29 08:01:46;;;;;;;6.80;2.20;;;;;;;-128.00;-1.00;-1.00;18886;295;7504690;-32
2023/06/29 08:04:12;;;;;;;3.40;2.40;;;;;;;-128.00;-1.00;-1.00;18485;295;7504846;-32
2023/06/29 08:06:42;;;;;;;6.90;3.50;;;;;;;-128.00;-1.00;-1.00;18871;303;7505501;-36
2023/06/29 08:09:08;;;;;;;3.80;1.90;;;;;;;-128.00;-1.00;-1.00;18497;339;7504759;-32
2023/06/29 08:11:33;;;;;;;11.30;2.30;;;;;;;-128.00;-1.00;-1.00;18481;336;7504903;-33
2023/06/29 08:13:59;;;;;;;2.90;2.60;;;;;;;-128.00;-1.00;-1.00;18873;335;7505074;-32
2023/06/29 08:16:25;;;;;;;3.90;2.00;;;;;;;-128.00;-1.00;-1.00;18891;295;7504236;-32
2023/06/29 08:18:52;;;;;;;3.90;2.10;;;;;;;-128.00;-1.00;-1.00;18865;295;7504729;-33
2023/06/29 08:21:18;;;;;;;3.10;2.00;;;;;;;-128.00;-1.00;-1.00;18867;295;7505312;-32
2023/06/29 08:23:46;;;;;;;5.50;2.70;;;;;;;-128.00;-1.00;-1.00;18915;298;7505287;-33
2023/06/29 08:26:12;;;;;;;16.50;1.90;;;;;;;-128.00;-1.00;-1.00;18464;295;7504535;-33
2023/06/29 08:28:38;;;;;;;2.30;2.00;;;;;;;-128.00;-1.00;-1.00;18500;295;7507662;-36
2023/06/29 08:31:04;;;;;;;3.60;1.80;;;;;;;-128.00;-1.00;-1.00;18866;306;7503966;-33
2023/06/29 08:33:30;;;;;;;3.40;2.00;;;;;;;-128.00;-1.00;-1.00;18887;295;7504660;-32
2023/06/29 08:35:57;;;;;;;2.60;2.40;;;;;;;-128.00;-1.00;-1.00;18854;295;7504215;-36
2023/06/29 08:38:23;;;;;;;4.80;1.90;;;;;;;-128.00;-1.00;-1.00;18851;303;7504565;-36
2023/06/29 08:40:49;;;;;;;2.70;2.10;;;;;;;-128.00;-1.00;-1.00;18849;295;7503987;-35
2023/06/29 08:43:15;;;;;;;3.20;1.60;;;;;;;-128.00;-1.00;-1.00;18871;295;7504882;-32
2023/06/29 08:45:42;;;;;;;8.20;2.20;;;;;;;-128.00;-1.00;-1.00;18867;288;7505064;-33
2023/06/29 08:48:09;;;;;;;2.40;1.80;;;;;;;-128.00;-1.00;-1.00;18478;297;7505543;-36
2023/06/29 08:50:34;;;;;;;2.30;1.10;;;;;;;-128.00;-1.00;-1.00;18466;295;7504816;-36
2023/06/29 08:53:00;;;;;;;3.90;1.70;;;;;;;-128.00;-1.00;-1.00;18493;335;7506091;-36
2023/06/29 08:55:26;;;;;;;2.30;1.70;;;;;;;-128.00;-1.00;-1.00;18907;335;7505413;-36
2023/06/29 08:57:54;;;;;;;3.10;1.60;;;;;;;-128.00;-1.00;-1.00;18887;295;7504826;-37
2023/06/29 09:00:20;;;;;;;1.80;1.60;;;;;;;-128.00;-1.00;-1.00;18497;295;7505816;-33
2023/06/29 09:02:47;;;;;;;2.40;1.10;;;;;;;-128.00;-1.00;-1.00;18454;295;7505796;-33
2023/06/29 09:05:13;;;;;;;2.40;1.40;;;;;;;-128.00;-1.00;-1.00;18459;295;7506365;-33
2023/06/29 09:07:40;;;;;;;3.10;1.00;;;;;;;-128.00;-1.00;-1.00;18479;295;7504864;-36
2023/06/29 09:10:10;;;;;;;1.60;1.50;;;;;;;-128.00;-1.00;-1.00;18481;347;7505078;-32
2023/06/29 09:12:36;;;;;;;1.90;1.20;;;;;;;-128.00;-1.00;-1.00;18476;295;7505318;-36
2023/06/29 09:15:10;;;;;;;1.40;1.30;;;;;;;-128.00;-1.00;-1.00;18457;295;7504532;-35
2023/06/29 09:17:36;;;;;;;1.40;1.00;;;;;;;-128.00;-1.00;-1.00;18456;295;7504706;-33
2023/06/29 09:20:13;;;;;;;8.40;1.10;;;;;;;-128.00;-1.00;-1.00;18454;288;7504441;-32
2023/06/29 09:22:39;;;;;;;4.10;1.70;;;;;;;-128.00;-1.00;-1.00;18092;288;7504352;-32
2023/06/29 09:25:06;;;;;;;4.40;1.30;;;;;;;-128.00;-1.00;-1.00;18461;298;7504747;-32
2023/06/29 09:27:33;;;;;;;2.30;1.20;;;;;;;-128.00;-1.00;-1.00;18470;295;7504664;-36
2023/06/29 09:30:00;;;;;;;5.40;1.00;;;;;;;-128.00;-1.00;-1.00;18486;295;7504930;-32
2023/06/29 09:32:28;;;;;;;2.10;1.90;;;;;;;-128.00;-1.00;-1.00;18449;295;7506814;-33
2023/06/29 09:34:54;;;;;;;2.30;1.00;;;;;;;-128.00;-1.00;-1.00;18464;314;7504363;-36
2023/06/29 09:37:20;;;;;;;1.50;1.30;;;;;;;-128.00;-1.00;-1.00;18482;287;7504907;-32
2023/06/29 09:39:59;;;;;;;3.00;0.90;;;;;;;-128.00;-1.00;-1.00;18478;295;7504800;-36
2023/06/29 09:42:31;;;;;;;2.20;1.20;;;;;;;-128.00;-1.00;-1.00;18469;295;7505011;-36
2023/06/29 09:45:04;;;;;;;1.30;1.20;;;;;;;-128.00;-1.00;-1.00;18447;295;7505085;-32
2023/06/29 09:47:30;;;;;;;2.00;1.30;;;;;;;-128.00;-1.00;-1.00;18455;295;7506156;-32
2023/06/29 09:49:56;;;;;;;2.20;1.40;;;;;;;-128.00;-1.00;-1.00;18458;295;7507414;-32
2023/06/29 09:52:22;;;;;;;1.60;1.30;;;;;;;-128.00;-1.00;-1.00;18461;296;7504773;-38
2023/06/29 09:54:49;;;;;;;2.80;1.10;;;;;;;-128.00;-1.00;-1.00;18478;295;7504443;-35
2023/06/29 09:57:15;;;;;;;4.70;2.10;;;;;;;-128.00;-1.00;-1.00;18468;295;7506147;-37
2023/06/29 09:59:41;;;;;;;5.50;1.40;;;;;;;-128.00;-1.00;-1.00;18460;295;7504131;-32
2023/06/29 10:02:08;;;;;;;0.80;0.80;;;;;;;-128.00;-1.00;-1.00;18474;295;7504761;-32
2023/06/29 10:04:35;;;;;;;14.60;1.30;;;;;;;-128.00;-1.00;-1.00;18511;295;7504561;-31
2023/06/29 10:07:05;;;;;;;5.60;2.40;;;;;;;-128.00;-1.00;-1.00;18470;311;7505741;-36
2023/06/29 10:09:33;;;;;;;1.20;0.60;;;;;;;-128.00;-1.00;-1.00;18492;295;7505121;-32
2023/06/29 10:11:59;;;;;;;7.50;1.70;;;;;;;-128.00;-1.00;-1.00;18488;295;7506155;-33
2023/06/29 10:14:25;;;;;;;1.00;0.90;;;;;;;-128.00;-1.00;-1.00;18458;295;7504659;-32
2023/06/29 10:16:53;;;;;;;2.00;1.50;;;;;;;-128.00;-1.00;-1.00;18461;295;7504617;-36
2023/06/29 10:19:20;;;;;;;0.70;0.60;;;;;;;-128.00;-1.00;-1.00;18475;295;7504613;-33
2023/06/29 10:21:47;;;;;;;1.70;0.70;;;;;;;-128.00;-1.00;-1.00;18489;295;7505005;-36
2023/06/29 10:24:14;;;;;;;2.00;0.70;;;;;;;-128.00;-1.00;-1.00;18455;295;7506232;-33
2023/06/29 10:26:40;;;;;;;1.70;0.80;;;;;;;-128.00;-1.00;-1.00;18462;295;7504548;-36
2023/06/29 10:29:06;;;;;;;4.90;0.90;;;;;;;-128.00;-1.00;-1.00;18888;295;7504852;-32
2023/06/29 10:31:33;;;;;;;1.10;0.70;;;;;;;-128.00;-1.00;-1.00;18486;295;7506248;-36
2023/06/29 10:33:59;;;;;;;0.50;0.50;;;;;;;-128.00;-1.00;-1.00;18475;339;7506508;-32
2023/06/29 10:36:25;;;;;;;0.70;0.60;;;;;;;-128.00;-1.00;-1.00;18482;314;7506344;-33
2023/06/29 10:38:51;;;;;;;1.30;0.70;;;;;;;-128.00;-1.00;-1.00;18465;295;7505320;-36
2023/06/29 10:41:29;;;;;;;2.60;1.00;;;;;;;-128.00;-1.00;-1.00;18488;295;7505987;-33
2023/06/29 10:43:59;;;;;;;0.70;0.70;;;;;;;-128.00;-1.00;-1.00;18469;295;7504994;-36
2023/06/29 10:46:49;;;;;;;8.30;1.10;;;;;;;-128.00;-1.00;-1.00;18508;295;7504623;-32
2023/06/29 10:49:27;;;;;;;1.90;1.00;;;;;;;-128.00;-1.00;-1.00;18477;295;7504928;-38
2023/06/29 10:51:54;;;;;;;0.90;0.80;;;;;;;-128.00;-1.00;-1.00;18465;346;7506900;-33
2023/06/29 10:54:23;;;;;;;0.90;0.80;;;;;;;-128.00;-1.00;-1.00;18483;346;7504540;-33
2023/06/29 10:57:01;;;;;;;1.40;0.60;;;;;;;-128.00;-1.00;-1.00;18485;295;7504778;-33
2023/06/29 10:59:27;;;;;;;0.60;0.60;;;;;;;-128.00;-1.00;-1.00;18480;295;7504950;-37
2023/06/29 11:01:54;;;;;;;2.90;0.90;;;;;;;-128.00;-1.00;-1.00;18464;295;7504152;-37
2023/06/29 11:04:21;;;;;;;1.70;0.40;;;;;;;-128.00;-1.00;-1.00;18472;295;7505117;-33
2023/06/29 11:06:46;;;;;;;1.00;0.70;;;;;;;-128.00;-1.00;-1.00;18481;295;7504921;-35
2023/06/29 11:09:13;;;;;;;1.40;0.90;;;;;;;-128.00;-1.00;-1.00;18872;318;7506035;-32
2023/06/29 11:11:40;;;;;;;0.80;0.60;;;;;;;-128.00;-1.00;-1.00;18461;295;7505188;-36
2023/06/29 11:14:06;;;;;;;0.70;0.60;;;;;;;-128.00;-1.00;-1.00;18479;295;7505285;-32
2023/06/29 11:16:33;;;;;;;1.20;0.80;;;;;;;-128.00;-1.00;-1.00;18478;295;7505764;-36
2023/06/29 11:19:02;;;;;;;0.40;0.30;;;;;;;-128.00;-1.00;-1.00;18485;295;7504654;-35
2023/06/29 11:21:29;;;;;;;1.50;1.30;;;;;;;-128.00;-1.00;-1.00;18479;295;7505106;-32
2023/06/29 11:23:54;;;;;;;2.10;1.10;;;;;;;-128.00;-1.00;-1.00;18496;295;7506071;-32
2023/06/29 11:26:21;;;;;;;10.90;2.00;;;;;;;-128.00;-1.00;-1.00;18868;298;7505212;-37
2023/06/29 11:28:51;;;;;;;5.60;1.00;;;;;;;-128.00;-1.00;-1.00;18483;318;7505772;-32
2023/06/29 11:31:17;;;;;;;0.70;0.70;;;;;;;-128.00;-1.00;-1.00;18468;346;7505001;-33
2023/06/29 11:33:48;;;;;;;1.30;0.80;;;;;;;-128.00;-1.00;-1.00;18466;295;7505232;-36
2023/06/29 11:36:14;;;;;;;0.60;0.60;;;;;;;-128.00;-1.00;-1.00;18511;295;7506861;-32
2023/06/29 11:38:40;;;;;;;1.90;0.90;;;;;;;-128.00;-1.00;-1.00;18495;295;7504658;-32
2023/06/29 11:41:06;;;;;;;3.50;1.20;;;;;;;-128.00;-1.00;-1.00;18488;295;7505800;-35
2023/06/29 11:43:32;;;;;;;1.50;0.80;;;;;;;-128.00;-1.00;-1.00;18483;295;7504614;-32
2023/06/29 11:45:58;;;;;;;0.90;0.80;;;;;;;-128.00;-1.00;-1.00;18456;295;7504603;-35
2023/06/29 11:48:23;;;;;;;1.10;0.80;;;;;;;-128.00;-1.00;-1.00;18467;295;7504869;-36
2023/06/29 11:50:49;;;;;;;2.20;0.90;;;;;;;-128.00;-1.00;-1.00;18457;294;7504852;-36
2023/06/29 11:53:15;;;;;;;1.20;0.50;;;;;;;-128.00;-1.00;-1.00;18466;288;7504625;-32
2023/06/29 11:55:53;;;;;;;2.20;0.90;;;;;;;-128.00;-1.00;-1.00;18522;295;7504971;-34
2023/06/29 11:58:19;;;;;;;4.10;1.00;;;;;;;-128.00;-1.00;-1.00;18509;295;7505033;-37
2023/06/29 12:00:53;;;;;;;2.00;1.00;;;;;;;-128.00;-1.00;-1.00;18867;295;7505070;-35
2023/06/29 12:03:19;;;;;;;9.20;1.30;;;;;;;-128.00;-1.00;-1.00;18448;295;7505225;-32
2023/06/29 12:05:45;;;;;;;1.30;0.80;;;;;;;-128.00;-1.00;-1.00;18881;339;7504816;-31
2023/06/29 12:08:11;;;;;;;3.50;0.90;;;;;;;-128.00;-1.00;-1.00;18875;318;7504682;-33
2023/06/29 12:10:38;;;;;;;3.10;0.80;;;;;;;-128.00;-1.00;-1.00;18893;295;7504849;-35